Time;durP1;ratioP1;P1;durP2;ratioP2;P2;SDS_P1;SDS_P2;PMS_P1;PMS_P2;Temp;Humidity;BMP_temperature;BMP_pressure;BME280_temperature;BME280_humidity;BME280_pressure;Samples;Min_cycle;Max_cycle;Signal;HPM_P1;HPM_P2
2021/03/17 00:00:59;;;;;;;29.42;23.10;;;128.20;2252.80;;;;;;4885402;29;20043;-78
2021/03/17 00:03:25;;;;;;;27.75;21.10;;;128.20;2252.80;;;;;;4902027;29;20049;-77
2021/03/17 00:05:52;;;;;;;25.05;19.92;;;128.20;2252.80;;;;;;4885088;29;20479;-77
2021/03/17 00:08:20;;;;;;;25.02;19.83;;;128.30;2252.80;;;;;;4902479;29;20040;-77
2021/03/17 00:11:28;;;;;;;27.35;22.42;;;128.20;2252.80;;;;;;4901376;29;20047;-80
2021/03/17 01:46:03;;;;;;;21.08;16.05;;;103.10;2227.20;;;;;;4935972;29;20043;-81
2021/03/17 02:56:15;;;;;;;16.92;12.10;;;103.00;2227.20;;;;;;6088788;23;20033;-80
2021/03/17 02:59:31;;;;;;;16.23;11.40;;;103.00;2227.20;;;;;;4954997;29;20058;-82
2021/03/17 04:56:34;;;;;;;17.55;12.55;;;102.40;2227.20;;;;;;4977571;28;20061;-81
2021/03/17 05:00:12;;;;;;;18.55;12.98;;;102.40;2227.20;;;;;;4954663;28;20022;-81
2021/03/17 08:57:37;;;;;;;19.50;14.40;;;102.80;2227.20;;;;;;4979545;28;20054;-81
2021/03/17 09:01:03;;;;;;;20.63;15.73;;;102.90;2227.20;;;;;;4971900;28;20030;-80
2021/03/17 09:03:51;;;;;;;26.10;17.55;;;102.90;2227.20;;;;;;4975546;28;20038;-81
2021/03/17 09:06:31;;;;;;;25.83;20.15;;;102.60;2227.20;;;;;;4958015;29;20019;-81
2021/03/17 09:09:20;;;;;;;19.60;15.70;;;103.00;2227.20;;;;;;4954120;29;20035;-80
2021/03/17 09:11:55;;;;;;;25.55;18.25;;;103.00;2227.20;;;;;;4961157;29;20058;-81
2021/03/17 09:14:27;;;;;;;22.63;16.50;;;103.00;2227.20;;;;;;4949895;29;20087;-81
2021/03/17 09:17:12;;;;;;;24.83;18.05;;;103.00;2227.20;;;;;;4924111;29;20501;-79
2021/03/17 09:20:05;;;;;;;23.60;17.42;;;103.00;2227.20;;;;;;4943391;29;20044;-81
2021/03/17 09:22:43;;;;;;;21.95;14.88;;;103.00;2227.20;;;;;;4957289;29;20050;-80
2021/03/17 09:25:33;;;;;;;21.30;14.57;;;103.10;2227.20;;;;;;4952221;29;20034;-81
2021/03/17 09:28:10;;;;;;;24.42;16.42;;;103.10;2227.20;;;;;;4954920;29;20086;-79
2021/03/17 09:30:58;;;;;;;29.95;20.15;;;103.10;2227.20;;;;;;4971451;29;20059;-80
2021/03/17 09:33:34;;;;;;;34.55;24.88;;;103.10;2227.20;;;;;;4954026;29;20051;-80
2021/03/17 09:36:11;;;;;;;23.30;17.95;;;103.20;2227.20;;;;;;4971457;29;20035;-79
2021/03/17 09:38:38;;;;;;;25.30;17.60;;;103.20;2227.20;;;;;;4948949;29;20437;-79
2021/03/17 09:41:22;;;;;;;21.98;15.98;;;103.30;2227.20;;;;;;4946567;29;20031;-78
2021/03/17 09:43:54;;;;;;;22.38;15.05;;;103.30;2227.20;;;;;;4946334;29;20031;-76
2021/03/17 09:46:36;;;;;;;23.88;15.45;;;103.30;2227.20;;;;;;4955914;29;20042;-77
2021/03/17 09:49:08;;;;;;;20.40;15.57;;;128.00;2252.80;;;;;;4950168;28;20051;-77
2021/03/17 09:51:56;;;;;;;19.67;14.73;;;103.30;2227.20;;;;;;4976386;28;20085;-77
2021/03/17 09:54:38;;;;;;;25.08;15.18;;;128.00;2252.80;;;;;;4963229;28;20392;-81
2021/03/17 09:57:08;;;;;;;21.33;16.27;;;128.00;2252.80;;;;;;4997213;28;20086;-81
2021/03/17 09:59:55;;;;;;;25.83;18.27;;;128.00;2252.80;;;;;;5090074;23;20049;-80
2021/03/17 10:02:30;;;;;;;29.83;19.60;;;128.10;2252.80;;;;;;4970137;28;20106;-80
2021/03/17 10:04:59;;;;;;;24.50;16.73;;;128.20;2252.80;;;;;;4947894;29;20035;-79
2021/03/17 10:07:30;;;;;;;25.38;17.23;;;128.20;2252.80;;;;;;4972855;29;20023;-79
2021/03/17 10:09:57;;;;;;;25.05;16.02;;;128.20;2252.80;;;;;;4947215;29;20120;-78
2021/03/17 10:12:29;;;;;;;155.35;101.32;;;128.30;2252.80;;;;;;4950235;29;20152;-79
2021/03/17 10:15:15;;;;;;;40.45;32.25;;;128.30;2252.80;;;;;;4952614;29;20046;-80
2021/03/17 10:17:50;;;;;;;23.15;16.67;;;128.30;2252.80;;;;;;4958152;29;20027;-80
2021/03/17 10:20:24;;;;;;;18.65;13.60;;;128.20;2252.80;;;;;;4955827;29;20031;-77
2021/03/17 10:26:37;;;;;;;16.85;12.70;;;128.30;2252.80;;;;;;4971481;29;20540;-80
2021/03/17 10:29:09;;;;;;;;;;;128.30;2252.80;;;;;;4957383;29;20063;-81
2021/03/17 10:32:04;;;;;;;23.90;16.02;;;128.30;2252.80;;;;;;4975145;29;19898;-82
2021/03/17 10:38:26;;;;;;;23.85;15.13;;;103.20;2227.20;;;;;;5034303;23;20051;-80
2021/03/17 10:40:57;;;;;;;42.92;25.40;;;128.40;2252.80;;;;;;4957169;29;20034;-80
2021/03/17 10:43:31;;;;;;;29.73;17.97;;;128.40;2252.80;;;;;;4974364;29;20039;-80
2021/03/17 10:46:03;;;;;;;21.63;16.08;;;128.40;2252.80;;;;;;4968738;29;20031;-80
2021/03/17 10:48:30;;;;;;;17.70;12.70;;;128.40;2252.80;;;;;;4944187;29;20043;-80
2021/03/17 10:50:57;;;;;;;21.98;15.15;;;128.40;2252.80;;;;;;4955747;29;20037;-79
2021/03/17 10:53:34;;;;;;;31.92;19.92;;;128.40;2252.80;;;;;;4959970;29;20020;-81
2021/03/17 10:56:15;;;;;;;20.38;13.82;;;128.40;2252.80;;;;;;4948118;29;20016;-80
2021/03/17 10:58:44;;;;;;;24.58;16.00;;;179.40;2252.80;;;;;;4957477;29;20034;-80
2021/03/17 11:01:23;;;;;;;44.92;25.50;;;128.70;2252.80;;;;;;4937744;29;20042;-80
2021/03/17 11:04:05;;;;;;;24.42;16.73;;;128.50;2252.80;;;;;;4941974;29;20043;-80
2021/03/17 11:06:31;;;;;;;28.75;19.63;;;128.50;2252.80;;;;;;4934065;29;20118;-80
2021/03/17 11:09:07;;;;;;;29.65;21.25;;;154.40;2252.80;;;;;;4934286;29;20028;-79
2021/03/17 11:11:50;;;;;;;24.02;17.67;;;128.60;2252.80;;;;;;4935219;29;20028;-79
2021/03/17 11:14:36;;;;;;;23.63;17.85;;;128.60;2252.80;;;;;;4934771;29;20063;-79
2021/03/17 11:17:09;;;;;;;21.65;15.32;;;128.60;2252.80;;;;;;4939041;29;20028;-80
2021/03/17 11:19:57;;;;;;;26.10;17.08;;;154.10;2252.80;;;;;;4941199;29;20494;-79
2021/03/17 11:22:38;;;;;;;20.73;14.73;;;128.70;2252.80;;;;;;4925723;29;20038;-81
2021/03/17 11:25:08;;;;;;;26.20;17.88;;;128.70;2252.80;;;;;;4939363;29;20552;-81
2021/03/17 11:27:34;;;;;;;18.60;15.68;;;128.30;2252.80;;;;;;4934346;29;20096;-80
2021/03/17 11:29:59;;;;;;;19.20;14.45;;;128.70;2252.80;;;;;;4935601;29;20020;-79
2021/03/17 11:32:55;;;;;;;20.60;16.42;;;128.80;2252.80;;;;;;4939334;29;20041;-80
2021/03/17 11:35:53;;;;;;;24.40;17.35;;;128.70;2252.80;;;;;;4954895;29;20051;-82
2021/03/17 11:39:01;;;;;;;19.75;14.52;;;128.80;2252.80;;;;;;4928844;29;20040;-81
2021/03/17 11:42:28;;;;;;;20.80;15.50;;;128.80;2252.80;;;;;;5160706;23;20026;-80
2021/03/17 11:45:48;;;;;;;19.33;13.85;;;128.80;2252.80;;;;;;4985751;28;20031;-81
2021/03/17 11:48:56;;;;;;;18.70;14.43;;;128.80;2252.80;;;;;;4985533;28;20030;-82
2021/03/17 11:51:59;;;;;;;26.67;14.50;;;128.90;2252.80;;;;;;4965110;28;20026;-80
2021/03/17 11:55:16;;;;;;;25.70;15.52;;;128.90;2252.80;;;;;;5016295;28;20027;-80
2021/03/17 12:27:32;;;;;;;20.00;14.20;;;153.80;2252.80;;;;;;4918483;29;21067;-81
2021/03/17 12:29:58;;;;;;;25.75;20.65;;;153.80;2252.80;;;;;;4900833;29;20054;-78
2021/03/17 12:32:25;;;;;;;19.73;15.73;;;153.80;2252.80;;;;;;4895503;29;20060;-78
2021/03/17 14:01:51;;;;;;;25.02;18.00;;;154.10;2252.80;;;;;;5924759;23;20026;-80
2021/03/17 15:01:45;;;;;;;25.42;17.27;;;154.10;2252.80;;;;;;4948899;26;20027;-80
2021/03/17 15:04:17;;;;;;;24.95;18.83;;;154.10;2252.80;;;;;;4949707;29;20064;-79
2021/03/17 15:07:38;;;;;;;25.23;17.00;;;154.10;2252.80;;;;;;4965933;28;20051;-80
2021/03/17 15:33:14;;;;;;;33.47;24.25;;;153.90;2252.80;;;;;;4960842;29;20104;-81
2021/03/17 15:39:13;;;;;;;20.25;14.85;;;128.90;2252.80;;;;;;5011754;23;20051;-81
2021/03/17 15:42:21;;;;;;;27.98;16.73;;;154.30;2252.80;;;;;;4963615;28;20039;-81
2021/03/17 15:45:22;;;;;;;23.80;18.47;;;153.60;2252.80;;;;;;4959948;29;20046;-80
2021/03/17 15:49:26;;;;;;;23.02;18.15;;;128.90;2252.80;;;;;;4973218;29;20019;-81
2021/03/17 15:52:21;;;;;;;22.30;16.77;;;128.80;2252.80;;;;;;4958696;29;20089;-80
2021/03/17 15:55:29;;;;;;;19.17;15.35;;;128.70;2252.80;;;;;;4948828;29;20032;-81
2021/03/17 16:02:30;;;;;;;17.88;11.63;;;128.60;2252.80;;;;;;4944929;29;20042;-81
2021/03/17 16:12:57;;;;;;;28.23;18.77;;;128.90;2252.80;;;;;;5529782;23;20070;-80
2021/03/17 16:15:24;;;;;;;28.83;20.00;;;128.40;2252.80;;;;;;4954969;28;20045;-80
2021/03/17 16:17:52;;;;;;;31.15;19.55;;;128.50;2252.80;;;;;;4957196;29;20031;-80
2021/03/17 16:20:22;;;;;;;31.33;22.08;;;128.40;2252.80;;;;;;4975526;29;20054;-80
2021/03/17 16:22:48;;;;;;;31.30;21.65;;;128.40;2252.80;;;;;;5098916;23;20051;-80
2021/03/17 16:25:20;;;;;;;29.95;21.55;;;128.40;2252.80;;;;;;5021007;23;20123;-81
2021/03/17 16:28:12;;;;;;;27.23;19.90;;;128.40;2252.80;;;;;;4954846;29;20047;-81
2021/03/17 16:30:43;;;;;;;31.45;20.88;;;128.40;2252.80;;;;;;4939140;29;20068;-81
2021/03/17 16:33:09;;;;;;;27.45;18.63;;;128.50;2252.80;;;;;;4923985;29;20435;-81
2021/03/17 16:35:37;;;;;;;26.83;18.48;;;128.40;2252.80;;;;;;4934910;29;20174;-79
2021/03/17 16:38:05;;;;;;;31.90;23.23;;;128.40;2252.80;;;;;;4942935;29;20509;-76
2021/03/17 17:08:47;;;;;;;27.50;19.40;;;128.00;2252.80;;;;;;5304685;23;20056;-79
2021/03/17 18:27:46;;;;;;;27.55;20.02;;;103.00;2227.20;;;;;;5046804;23;20073;-80
2021/03/17 18:38:14;;;;;;;36.10;24.55;;;103.10;2227.20;;;;;;5074625;23;20046;-81
2021/03/17 18:41:11;;;;;;;32.25;22.40;;;103.10;2227.20;;;;;;4989441;28;20055;-81
2021/03/17 18:43:45;;;;;;;;;;;103.10;2227.20;;;;;;4978748;28;20113;-81
2021/03/17 18:47:08;;;;;;;29.85;20.85;;;103.10;2227.20;;;;;;4938045;29;19942;-81
2021/03/17 18:53:43;;;;;;;33.30;22.75;;;103.00;2227.20;;;;;;4876960;29;20036;-80
2021/03/17 18:56:33;;;;;;;29.33;21.35;;;103.00;2227.20;;;;;;4935002;29;20036;-80
2021/03/17 19:03:22;;;;;;;32.65;21.20;;;103.00;2227.20;;;;;;4942401;29;20056;-80
2021/03/17 19:13:50;;;;;;;32.17;23.20;;;103.00;2227.20;;;;;;4844129;29;20109;-80
2021/03/17 19:23:51;;;;;;;30.27;21.73;;;103.00;2227.20;;;;;;4782684;30;20060;-80
2021/03/17 19:27:45;;;;;;;34.83;23.00;;;103.00;2227.20;;;;;;4774047;30;20063;-80
2021/03/17 19:34:15;;;;;;;45.63;29.60;;;103.00;2227.20;;;;;;4797755;30;20057;-80
2021/03/17 19:37:56;;;;;;;26.02;20.20;;;103.00;2227.20;;;;;;4808829;30;20031;-80
2021/03/17 19:41:13;;;;;;;21.17;15.98;;;102.80;2227.20;;;;;;4736549;30;20580;-80
2021/03/17 19:44:22;;;;;;;24.80;18.83;;;102.70;2227.20;;;;;;4731571;30;20052;-79
2021/03/17 19:46:52;;;;;;;34.17;22.55;;;102.70;2227.20;;;;;;4818334;29;20045;-80
2021/03/17 19:50:12;;;;;;;52.45;34.78;;;103.30;2227.20;;;;;;4846626;29;20034;-81
2021/03/17 19:53:22;;;;;;;29.52;21.65;;;102.70;2227.20;;;;;;4834229;29;20065;-81
2021/03/17 19:56:22;;;;;;;26.08;19.67;;;102.60;2227.20;;;;;;4863435;29;20041;-81
2021/03/17 20:09:19;;;;;;;32.65;22.52;;;102.50;2227.20;;;;;;4918500;29;20052;-81
2021/03/17 20:12:49;;;;;;;34.03;23.75;;;102.50;2227.20;;;;;;4912112;29;20109;-80
2021/03/17 20:26:44;;;;;;;50.20;27.10;;;102.50;2227.20;;;;;;4956598;29;20091;-80
2021/03/17 20:30:05;;;;;;;38.40;28.13;;;102.50;2227.20;;;;;;4954043;29;20023;-81
2021/03/17 20:33:44;;;;;;;27.77;21.33;;;102.50;2227.20;;;;;;4919903;29;20028;-81
2021/03/17 20:37:22;;;;;;;26.05;18.23;;;102.40;2227.20;;;;;;4934634;29;20087;-81
2021/03/17 20:41:15;;;;;;;26.27;17.45;;;102.40;2227.20;;;;;;4808651;29;20165;-80
2021/03/17 20:43:47;;;;;;;24.45;17.25;;;102.40;2227.20;;;;;;4806554;29;20039;-80
2021/03/17 20:50:38;;;;;;;29.38;19.45;;;102.40;2227.20;;;;;;4826677;29;20107;-82
2021/03/17 20:54:12;;;;;;;22.00;14.70;;;102.40;2227.20;;;;;;4796454;29;20518;-81
2021/03/17 21:01:00;;;;;;;21.95;16.35;;;102.40;2227.20;;;;;;4954156;29;20136;-81
2021/03/17 21:15:25;;;;;;;28.30;19.00;;;102.50;2227.20;;;;;;4940081;29;20048;-81
2021/03/17 21:22:41;;;;;;;24.77;16.33;;;102.60;2227.20;;;;;;4916970;29;20187;-81
2021/03/17 21:26:02;;;;;;;24.23;16.15;;;102.60;2227.20;;;;;;4916801;29;20048;-80
2021/03/17 21:32:37;;;;;;;26.75;19.20;;;102.70;2227.20;;;;;;4919176;29;20176;-81
2021/03/17 21:35:07;;;;;;;23.52;17.80;;;102.70;2227.20;;;;;;4911366;29;20039;-79
2021/03/17 21:37:35;;;;;;;26.63;19.10;;;102.70;2227.20;;;;;;4889488;29;20039;-80
2021/03/17 21:40:08;;;;;;;33.88;22.17;;;102.70;2227.20;;;;;;4915786;29;20072;-80
2021/03/17 21:46:34;;;;;;;31.30;20.75;;;102.80;2227.20;;;;;;4976836;29;20030;-81
2021/03/17 21:49:59;;;;;;;29.70;19.10;;;102.80;2227.20;;;;;;4973167;28;20062;-81
2021/03/17 21:53:35;;;;;;;29.50;18.85;;;102.80;2227.20;;;;;;4920729;29;20056;-80
2021/03/17 22:04:02;;;;;;;34.50;20.27;;;102.80;2227.20;;;;;;5058224;23;20076;-81
2021/03/17 22:58:11;;;;;;;35.22;23.48;;;103.00;2227.20;;;;;;5977359;23;20030;-80
2021/03/17 23:01:27;;;;;;;34.05;22.45;;;103.00;2227.20;;;;;;4941659;29;20062;-81
2021/03/17 23:04:58;;;;;;;38.83;25.42;;;103.00;2227.20;;;;;;4959178;28;20082;-80
2021/03/17 23:18:22;;;;;;;31.23;21.45;;;103.00;2227.20;;;;;;4863649;29;20162;-80
2021/03/17 23:21:54;;;;;;;27.17;18.92;;;103.00;2227.20;;;;;;4846095;29;20090;-79
2021/03/17 23:29:02;;;;;;;24.20;17.13;;;103.00;2227.20;;;;;;4864227;29;20148;-80
2021/03/17 23:31:48;;;;;;;31.00;19.55;;;103.00;2227.20;;;;;;4826244;29;20046;-78
2021/03/17 23:34:32;;;;;;;27.67;18.85;;;103.00;2227.20;;;;;;4840901;29;20021;-80
2021/03/17 23:37:58;;;;;;;33.88;22.95;;;102.90;2227.20;;;;;;4842950;29;20039;-80
2021/03/17 23:51:36;;;;;;;31.83;22.33;;;103.00;2227.20;;;;;;4979683;28;20070;-81
